createdAt,value
2023-01-15T00:00:52.841Z,88161.00
2023-01-15T00:01:52.787Z,88159.00
2023-01-15T00:02:52.788Z,88155.00
2023-01-15T00:03:52.669Z,88151.00
2023-01-15T00:04:52.614Z,88159.00
2023-01-15T00:05:52.563Z,88163.00
2023-01-15T00:06:52.492Z,88153.00
2023-01-15T00:07:52.455Z,88149.00
2023-01-15T00:08:52.364Z,88145.00
2023-01-15T00:09:52.315Z,88141.00
2023-01-15T00:10:52.242Z,88149.00
2023-01-15T00:11:52.200Z,88153.00
2023-01-15T00:12:52.137Z,88151.00
2023-01-15T00:13:52.086Z,88153.00
2023-01-15T00:14:52.008Z,88149.00
2023-01-15T00:15:51.981Z,88153.00
2023-01-15T00:16:51.914Z,88153.00
2023-01-15T00:17:51.846Z,88157.00
2023-01-15T00:18:51.800Z,88149.00
2023-01-15T00:19:51.732Z,88141.00
2023-01-15T00:20:51.676Z,88147.00
2023-01-15T00:21:51.623Z,88149.00
2023-01-15T00:22:51.572Z,88141.00
2023-01-15T00:23:51.498Z,88151.00
2023-01-15T00:24:51.440Z,88151.00
2023-01-15T00:25:51.392Z,88143.00
2023-01-15T00:26:51.323Z,88145.00
2023-01-15T00:27:51.271Z,88145.00
2023-01-15T00:28:51.214Z,88136.00
2023-01-15T00:29:51.160Z,88137.00
2023-01-15T00:30:51.157Z,88139.00
2023-01-15T00:31:51.058Z,88134.00
2023-01-15T00:32:50.989Z,88141.00
2023-01-15T00:33:50.925Z,88139.00
2023-01-15T00:34:50.875Z,88139.00
2023-01-15T00:35:50.852Z,88130.00
2023-01-15T00:36:50.762Z,88134.00
2023-01-15T00:37:50.728Z,88134.00
2023-01-15T00:38:50.661Z,88137.00
2023-01-15T00:39:50.605Z,88124.00
2023-01-15T00:40:50.542Z,88130.00
2023-01-15T00:41:50.472Z,88112.00
2023-01-15T00:42:54.717Z,88120.00
2023-01-15T00:43:50.360Z,88126.00
2023-01-15T00:44:50.306Z,88114.00
2023-01-15T00:45:50.242Z,88122.00
2023-01-15T00:46:50.227Z,88126.00
2023-01-15T00:47:50.141Z,88126.00
2023-01-15T00:48:50.066Z,88130.00
2023-01-15T00:49:50.014Z,88128.00
2023-01-15T00:50:49.965Z,88126.00
2023-01-15T00:51:49.966Z,88130.00
2023-01-15T00:52:49.872Z,88116.00
2023-01-15T00:53:49.820Z,88124.00
2023-01-15T00:54:49.750Z,88130.00
2023-01-15T00:55:49.699Z,88122.00
2023-01-15T00:56:49.638Z,88116.00
2023-01-15T00:57:49.650Z,88122.00
2023-01-15T00:58:49.512Z,88118.00
2023-01-15T00:59:49.455Z,88110.00
2023-01-15T01:00:49.427Z,88112.00
2023-01-15T01:01:49.441Z,88122.00
2023-01-15T01:02:49.284Z,88116.00
2023-01-15T01:03:49.231Z,88116.00
2023-01-15T01:04:49.168Z,88122.00
2023-01-15T01:05:49.101Z,88112.00
2023-01-15T01:06:49.045Z,88106.00
2023-01-15T01:07:49.004Z,88114.00
2023-01-15T01:08:48.942Z,88112.00
2023-01-15T01:09:48.904Z,88104.00
2023-01-15T01:10:48.845Z,88116.00
2023-01-15T01:11:48.815Z,88112.00
2023-01-15T01:12:48.746Z,88108.00
2023-01-15T01:13:48.716Z,88106.00
2023-01-15T01:14:48.653Z,88102.00
2023-01-15T01:15:48.592Z,88106.00
2023-01-15T01:16:48.540Z,88100.00
2023-01-15T01:17:48.530Z,88104.00
2023-01-15T01:18:48.443Z,88102.00
2023-01-15T01:19:48.395Z,88110.00
2023-01-15T01:20:48.342Z,88096.00
2023-01-15T01:21:48.294Z,88108.00
2023-01-15T01:22:48.213Z,88104.00
2023-01-15T01:23:48.165Z,88102.00
2023-01-15T01:24:48.108Z,88100.00
2023-01-15T01:25:48.061Z,88092.00
2023-01-15T01:26:48.018Z,88094.00
2023-01-15T01:27:47.950Z,88092.00
2023-01-15T01:28:47.917Z,88096.00
2023-01-15T01:29:47.843Z,88094.00
2023-01-15T01:30:47.777Z,88090.00
2023-01-15T01:31:47.808Z,88092.00
2023-01-15T01:32:47.681Z,88086.00
2023-01-15T01:33:47.622Z,88084.00
2023-01-15T01:34:47.563Z,88079.00
2023-01-15T01:35:47.530Z,88086.00
2023-01-15T01:36:47.493Z,88090.00
2023-01-15T01:37:47.400Z,88082.00
2023-01-15T01:38:47.347Z,88081.00
2023-01-15T01:39:47.297Z,88082.00
2023-01-15T01:40:47.260Z,88077.00
2023-01-15T01:41:47.204Z,88073.00
2023-01-15T01:42:47.149Z,88079.00
2023-01-15T01:43:47.102Z,88081.00
2023-01-15T01:44:47.030Z,88079.00
2023-01-15T01:45:47.031Z,88075.00
2023-01-15T01:46:46.917Z,88075.00
2023-01-15T01:47:46.864Z,88073.00
2023-01-15T01:48:46.827Z,88077.00
2023-01-15T01:49:46.758Z,88063.00
2023-01-15T01:50:46.701Z,88069.00
2023-01-15T01:51:46.657Z,88077.00
2023-01-15T01:52:46.598Z,88069.00
2023-01-15T01:53:46.535Z,88061.00
2023-01-15T01:54:46.526Z,88063.00
2023-01-15T01:55:46.439Z,88061.00
2023-01-15T01:56:46.400Z,88067.00
2023-01-15T01:57:46.318Z,88057.00
2023-01-15T01:58:46.261Z,88059.00
2023-01-15T01:59:46.225Z,88055.00
2023-01-15T02:00:46.205Z,88057.00
2023-01-15T02:01:46.178Z,88057.00
2023-01-15T02:02:46.084Z,88059.00
2023-01-15T02:03:46.000Z,88055.00
2023-01-15T02:04:45.955Z,88057.00
2023-01-15T02:05:45.897Z,88049.00
2023-01-15T02:06:45.845Z,88049.00
2023-01-15T02:07:45.808Z,88049.00
2023-01-15T02:08:45.740Z,88049.00
2023-01-15T02:09:45.711Z,88053.00
2023-01-15T02:10:45.661Z,88047.00
2023-01-15T02:11:45.620Z,88051.00
2023-01-15T02:12:45.541Z,88039.00
2023-01-15T02:13:45.496Z,88049.00
2023-01-15T02:14:45.444Z,88045.00
2023-01-15T02:15:45.406Z,88035.00
2023-01-15T02:16:45.356Z,88035.00
2023-01-15T02:17:45.326Z,88037.00
2023-01-15T02:18:45.246Z,88039.00
2023-01-15T02:19:45.176Z,88035.00
2023-01-15T02:20:45.113Z,88041.00
2023-01-15T02:21:45.071Z,88039.00
2023-01-15T02:22:45.009Z,88037.00
2023-01-15T02:23:44.964Z,88026.00
2023-01-15T02:24:44.936Z,88022.00
2023-01-15T02:25:44.868Z,88024.00
2023-01-15T02:26:44.806Z,88026.00
2023-01-15T02:27:44.742Z,88029.00
2023-01-15T02:28:44.702Z,88026.00
2023-01-15T02:29:44.650Z,88012.00
2023-01-15T02:30:44.616Z,88006.00
2023-01-15T02:31:44.580Z,88016.00
2023-01-15T02:32:44.503Z,88016.00
2023-01-15T02:33:44.444Z,88018.00
2023-01-15T02:34:44.406Z,88010.00
2023-01-15T02:35:44.355Z,88014.00
2023-01-15T02:36:44.311Z,88012.00
2023-01-15T02:37:44.256Z,88012.00
2023-01-15T02:38:44.207Z,88012.00
2023-01-15T02:39:44.158Z,88012.00
2023-01-15T02:40:44.104Z,88018.00
2023-01-15T02:41:44.058Z,88006.00
2023-01-15T02:42:43.994Z,88008.00
2023-01-15T02:43:43.939Z,88004.00
2023-01-15T02:44:43.888Z,88002.00
2023-01-15T02:45:43.860Z,87996.00
2023-01-15T02:46:43.791Z,87996.00
2023-01-15T02:47:43.747Z,87990.00
2023-01-15T02:48:43.676Z,87986.00
2023-01-15T02:49:43.649Z,87998.00
2023-01-15T02:50:43.577Z,87994.00
2023-01-15T02:51:43.550Z,87990.00
2023-01-15T02:52:43.475Z,87992.00
2023-01-15T02:53:43.453Z,87998.00
2023-01-15T02:54:43.381Z,87986.00
2023-01-15T02:55:43.328Z,87988.00
2023-01-15T02:56:43.279Z,87988.00
2023-01-15T02:57:43.215Z,87984.00
2023-01-15T02:58:43.185Z,87980.00
2023-01-15T02:59:43.119Z,87976.00
2023-01-15T03:00:43.121Z,87982.00
2023-01-15T03:01:43.194Z,87978.00
2023-01-15T03:02:43.031Z,87980.00
2023-01-15T03:03:42.928Z,87980.00
2023-01-15T03:04:42.862Z,87974.00
2023-01-15T03:05:42.828Z,87971.00
2023-01-15T03:06:42.776Z,87969.00
2023-01-15T03:07:42.724Z,87958.00
2023-01-15T03:08:42.662Z,87950.00
2023-01-15T03:09:42.616Z,87954.00
2023-01-15T03:10:42.566Z,87965.00
2023-01-15T03:11:42.511Z,87958.00
2023-01-15T03:12:42.462Z,87956.00
2023-01-15T03:13:42.415Z,87967.00
2023-01-15T03:14:42.359Z,87980.00
2023-01-15T03:15:42.327Z,87967.00
2023-01-15T03:16:42.321Z,87954.00
2023-01-15T03:17:42.222Z,87958.00
2023-01-15T03:18:42.166Z,87944.00
2023-01-15T03:19:42.124Z,87942.00
2023-01-15T03:20:42.090Z,87942.00
2023-01-15T03:21:42.031Z,87944.00
2023-01-15T03:22:41.978Z,87938.00
2023-01-15T03:23:41.938Z,87946.00
2023-01-15T03:24:41.890Z,87942.00
2023-01-15T03:25:41.845Z,87938.00
2023-01-15T03:26:41.797Z,87934.00
2023-01-15T03:27:41.764Z,87930.00
2023-01-15T03:28:41.712Z,87934.00
2023-01-15T03:29:41.668Z,87936.00
2023-01-15T03:30:41.671Z,87932.00
2023-01-15T03:31:41.571Z,87936.00
2023-01-15T03:32:41.532Z,87934.00
2023-01-15T03:33:41.489Z,87928.00
2023-01-15T03:34:41.436Z,87932.00
2023-01-15T03:35:41.391Z,87924.00
2023-01-15T03:36:41.333Z,87930.00
2023-01-15T03:37:41.311Z,87926.00
2023-01-15T03:38:41.230Z,87926.00
2023-01-15T03:39:41.177Z,87922.00
2023-01-15T03:40:41.135Z,87920.00
2023-01-15T03:41:41.079Z,87922.00
2023-01-15T03:42:41.028Z,87919.00
2023-01-15T03:43:40.989Z,87919.00
2023-01-15T03:44:40.937Z,87920.00
2023-01-15T03:45:40.929Z,87917.00
2023-01-15T03:46:40.830Z,87903.00
2023-01-15T03:47:40.786Z,87899.00
2023-01-15T03:48:40.727Z,87905.00
2023-01-15T03:49:40.696Z,87909.00
2023-01-15T03:50:40.638Z,87905.00
2023-01-15T03:51:40.621Z,87893.00
2023-01-15T03:52:40.534Z,87897.00
2023-01-15T03:53:40.503Z,87903.00
2023-01-15T03:54:40.427Z,87903.00
2023-01-15T03:55:40.383Z,87893.00
2023-01-15T03:56:40.324Z,87885.00
2023-01-15T03:57:40.284Z,87899.00
2023-01-15T03:58:40.230Z,87891.00
2023-01-15T03:59:40.180Z,87887.00
2023-01-15T04:00:40.125Z,87883.00
2023-01-15T04:01:40.214Z,87885.00
2023-01-15T04:02:40.020Z,87885.00
2023-01-15T04:03:39.987Z,87869.00
2023-01-15T04:04:39.920Z,87889.00
2023-01-15T04:05:39.872Z,87891.00
2023-01-15T04:06:39.826Z,87873.00
2023-01-15T04:07:39.771Z,87883.00
2023-01-15T04:08:39.720Z,87867.00
2023-01-15T04:09:39.672Z,87875.00
2023-01-15T04:10:39.631Z,87883.00
2023-01-15T04:11:39.578Z,87881.00
2023-01-15T04:12:39.531Z,87877.00
2023-01-15T04:13:39.489Z,87865.00
2023-01-15T04:14:39.434Z,87861.00
2023-01-15T04:15:39.403Z,87865.00
2023-01-15T04:16:39.355Z,87857.00
2023-01-15T04:17:39.282Z,87863.00
2023-01-15T04:18:39.233Z,87856.00
2023-01-15T04:19:39.205Z,87856.00
2023-01-15T04:20:39.156Z,87857.00
2023-01-15T04:21:39.108Z,87863.00
2023-01-15T04:22:39.062Z,87863.00
2023-01-15T04:23:39.005Z,87863.00
2023-01-15T04:24:38.951Z,87865.00
2023-01-15T04:25:38.903Z,87873.00
2023-01-15T04:26:38.864Z,87863.00
2023-01-15T04:27:38.841Z,87871.00
2023-01-15T04:28:38.755Z,87873.00
2023-01-15T04:29:38.711Z,87869.00
2023-01-15T04:30:38.734Z,87859.00
2023-01-15T04:31:38.612Z,87865.00
2023-01-15T04:32:38.571Z,87863.00
2023-01-15T04:33:38.530Z,87859.00
2023-01-15T04:34:38.460Z,87861.00
2023-01-15T04:35:38.433Z,87857.00
2023-01-15T04:36:38.359Z,87857.00
2023-01-15T04:37:38.315Z,87852.00
2023-01-15T04:38:38.277Z,87857.00
2023-01-15T04:39:38.210Z,87850.00
2023-01-15T04:40:38.152Z,87848.00
2023-01-15T04:41:38.106Z,87848.00
2023-01-15T04:42:38.058Z,87848.00
2023-01-15T04:43:37.996Z,87840.00
2023-01-15T04:44:37.951Z,87838.00
2023-01-15T04:45:37.895Z,87838.00
2023-01-15T04:46:37.862Z,87838.00
2023-01-15T04:47:37.815Z,87832.00
2023-01-15T04:48:37.744Z,87834.00
2023-01-15T04:49:37.695Z,87834.00
2023-01-15T04:50:40.338Z,87834.00
2023-01-15T04:51:37.605Z,87828.00
2023-01-15T04:52:37.551Z,87818.00
2023-01-15T04:53:37.492Z,87818.00
2023-01-15T04:54:37.447Z,87824.00
2023-01-15T04:55:37.385Z,87838.00
2023-01-15T04:56:37.338Z,87822.00
2023-01-15T04:57:37.288Z,87830.00
2023-01-15T04:58:37.234Z,87820.00
2023-01-15T04:59:37.175Z,87818.00
2023-01-15T05:00:37.131Z,87810.00
2023-01-15T05:01:37.370Z,87816.00
2023-01-15T05:02:37.239Z,87820.00
2023-01-15T05:03:36.979Z,87810.00
2023-01-15T05:04:36.988Z,87803.00
2023-01-15T05:05:36.871Z,87814.00
2023-01-15T05:06:36.824Z,87814.00
2023-01-15T05:07:36.774Z,87824.00
2023-01-15T05:08:36.710Z,87814.00
2023-01-15T05:09:36.657Z,87824.00
2023-01-15T05:10:36.606Z,87836.00
2023-01-15T05:11:36.582Z,87832.00
2023-01-15T05:12:36.516Z,87832.00
2023-01-15T05:13:36.442Z,87838.00
2023-01-15T05:14:36.390Z,87838.00
2023-01-15T05:15:36.360Z,87828.00
2023-01-15T05:16:36.277Z,87834.00
2023-01-15T05:17:36.228Z,87826.00
2023-01-15T05:18:36.174Z,87824.00
2023-01-15T05:19:36.126Z,87814.00
2023-01-15T05:20:36.073Z,87818.00
2023-01-15T05:21:36.022Z,87814.00
2023-01-15T05:22:36.007Z,87816.00
2023-01-15T05:23:35.906Z,87824.00
2023-01-15T05:24:35.861Z,87832.00
2023-01-15T05:25:35.851Z,87826.00
2023-01-15T05:26:35.777Z,87816.00
2023-01-15T05:27:35.699Z,87818.00
2023-01-15T05:28:35.651Z,87822.00
2023-01-15T05:29:35.597Z,87818.00
2023-01-15T05:30:35.566Z,87822.00
2023-01-15T05:31:35.492Z,87824.00
2023-01-15T05:32:35.449Z,87812.00
2023-01-15T05:33:35.404Z,87810.00
2023-01-15T05:34:35.341Z,87810.00
2023-01-15T05:35:35.290Z,87812.00
2023-01-15T05:36:35.253Z,87816.00
2023-01-15T05:37:35.185Z,87810.00
2023-01-15T05:38:35.137Z,87805.00
2023-01-15T05:39:35.082Z,87801.00
2023-01-15T05:40:35.040Z,87785.00
2023-01-15T05:41:35.009Z,87807.00
2023-01-15T05:42:34.934Z,87801.00
2023-01-15T05:43:34.876Z,87810.00
2023-01-15T05:44:34.817Z,87793.00
2023-01-15T05:45:34.753Z,87789.00
2023-01-15T05:46:34.727Z,87797.00
2023-01-15T05:47:34.651Z,87801.00
2023-01-15T05:48:34.595Z,87793.00
2023-01-15T05:49:34.539Z,87787.00
2023-01-15T05:50:34.506Z,87787.00
2023-01-15T05:51:34.425Z,87781.00
2023-01-15T05:52:34.384Z,87779.00
2023-01-15T05:53:34.329Z,87783.00
2023-01-15T05:54:34.290Z,87801.00
2023-01-15T05:55:34.209Z,87803.00
2023-01-15T05:56:34.156Z,87803.00
2023-01-15T05:57:34.105Z,87799.00
2023-01-15T05:58:34.055Z,87787.00
2023-01-15T05:59:34.006Z,87787.00
2023-01-15T06:00:33.935Z,87787.00
2023-01-15T06:01:33.909Z,87795.00
2023-01-15T06:02:33.856Z,87803.00
2023-01-15T06:03:33.843Z,87801.00
2023-01-15T06:04:33.735Z,87787.00
2023-01-15T06:05:33.684Z,87795.00
2023-01-15T06:06:33.625Z,87799.00
2023-01-15T06:07:33.587Z,87799.00
2023-01-15T06:08:33.530Z,87795.00
2023-01-15T06:09:33.467Z,87793.00
2023-01-15T06:10:33.420Z,87795.00
2023-01-15T06:11:33.378Z,87797.00
2023-01-15T06:12:33.313Z,87801.00
2023-01-15T06:13:33.245Z,87803.00
2023-01-15T06:14:33.199Z,87801.00
2023-01-15T06:15:33.146Z,87795.00
2023-01-15T06:16:33.087Z,87807.00
2023-01-15T06:17:33.083Z,87799.00
2023-01-15T06:18:32.984Z,87805.00
2023-01-15T06:19:32.933Z,87797.00
2023-01-15T06:20:32.872Z,87797.00
2023-01-15T06:21:32.834Z,87797.00
2023-01-15T06:22:32.777Z,87799.00
2023-01-15T06:23:32.739Z,87801.00
2023-01-15T06:24:32.672Z,87797.00
2023-01-15T06:25:32.593Z,87785.00
2023-01-15T06:26:32.539Z,87783.00
2023-01-15T06:27:32.477Z,87779.00
2023-01-15T06:28:32.429Z,87787.00
2023-01-15T06:29:32.389Z,87791.00
2023-01-15T06:30:32.342Z,87795.00
2023-01-15T06:31:32.339Z,87789.00
2023-01-15T06:32:32.305Z,87793.00
2023-01-15T06:33:32.220Z,87799.00
2023-01-15T06:34:32.142Z,87783.00
2023-01-15T06:35:32.095Z,87779.00
2023-01-15T06:36:32.044Z,87777.00
2023-01-15T06:37:31.993Z,87777.00
2023-01-15T06:38:31.947Z,87783.00
2023-01-15T06:39:31.893Z,87795.00
2023-01-15T06:40:31.837Z,87801.00
2023-01-15T06:41:31.801Z,87801.00
2023-01-15T06:42:31.740Z,87801.00
2023-01-15T06:43:31.684Z,87803.00
2023-01-15T06:44:31.637Z,87799.00
2023-01-15T06:45:31.579Z,87807.00
2023-01-15T06:46:31.586Z,87797.00
2023-01-15T06:47:31.483Z,87793.00
2023-01-15T06:48:31.433Z,87787.00
2023-01-15T06:49:31.403Z,87795.00
2023-01-15T06:50:31.328Z,87797.00
2023-01-15T06:51:31.443Z,87809.00
2023-01-15T06:52:31.246Z,87797.00
2023-01-15T06:53:31.174Z,87795.00
2023-01-15T06:54:31.120Z,87799.00
2023-01-15T06:55:31.085Z,87805.00
2023-01-15T06:56:31.026Z,87807.00
2023-01-15T06:57:30.968Z,87797.00
2023-01-15T06:58:30.922Z,87795.00
2023-01-15T06:59:30.869Z,87783.00
2023-01-15T07:00:30.888Z,87787.00
2023-01-15T07:01:30.828Z,87783.00
2023-01-15T07:02:30.728Z,87787.00
2023-01-15T07:03:30.751Z,87793.00
2023-01-15T07:04:30.659Z,87787.00
2023-01-15T07:05:30.557Z,87787.00
2023-01-15T07:06:30.512Z,87787.00
2023-01-15T07:07:30.452Z,87787.00
2023-01-15T07:08:30.413Z,87785.00
2023-01-15T07:09:30.345Z,87777.00
2023-01-15T07:10:30.311Z,87775.00
2023-01-15T07:11:30.256Z,87775.00
2023-01-15T07:12:30.182Z,87769.00
2023-01-15T07:13:30.132Z,87775.00
2023-01-15T07:14:30.107Z,87771.00
2023-01-15T07:15:30.035Z,87767.00
2023-01-15T07:16:30.013Z,87763.00
2023-01-15T07:17:29.948Z,87765.00
2023-01-15T07:18:29.890Z,87754.00
2023-01-15T07:19:29.822Z,87761.00
2023-01-15T07:20:29.770Z,87761.00
2023-01-15T07:21:29.719Z,87771.00
2023-01-15T07:22:29.671Z,87769.00
2023-01-15T07:23:29.622Z,87763.00
2023-01-15T07:24:29.566Z,87767.00
2023-01-15T07:25:29.506Z,87767.00
2023-01-15T07:26:29.457Z,87763.00
2023-01-15T07:27:29.398Z,87757.00
2023-01-15T07:28:29.344Z,87763.00
2023-01-15T07:29:30.891Z,87759.00
2023-01-15T07:30:29.252Z,87777.00
2023-01-15T07:31:29.245Z,87781.00
2023-01-15T07:32:29.161Z,87775.00
2023-01-15T07:33:29.093Z,87771.00
2023-01-15T07:34:29.043Z,87765.00
2023-01-15T07:35:28.991Z,87773.00
2023-01-15T07:36:28.925Z,87787.00
2023-01-15T07:37:28.875Z,87781.00
2023-01-15T07:38:28.826Z,87777.00
2023-01-15T07:39:28.766Z,87779.00
2023-01-15T07:40:28.716Z,87783.00
2023-01-15T07:41:28.680Z,87775.00
2023-01-15T07:42:28.618Z,87781.00
2023-01-15T07:43:28.545Z,87771.00
2023-01-15T07:44:28.509Z,87783.00
2023-01-15T07:45:28.461Z,87765.00
2023-01-15T07:46:28.385Z,87761.00
2023-01-15T07:47:28.349Z,87765.00
2023-01-15T07:48:28.281Z,87757.00
2023-01-15T07:49:28.218Z,87755.00
2023-01-15T07:50:28.165Z,87765.00
2023-01-15T07:51:28.109Z,87763.00
2023-01-15T07:52:28.056Z,87763.00
2023-01-15T07:53:27.999Z,87771.00
2023-01-15T07:54:27.945Z,87773.00
2023-01-15T07:55:27.895Z,87771.00
2023-01-15T07:56:27.835Z,87761.00
2023-01-15T07:57:27.773Z,87754.00
2023-01-15T07:58:27.741Z,87761.00
2023-01-15T07:59:27.677Z,87755.00
2023-01-15T08:00:27.662Z,87777.00
2023-01-15T08:01:27.707Z,87757.00
2023-01-15T08:02:27.511Z,87754.00
2023-01-15T08:03:27.477Z,87757.00
2023-01-15T08:04:27.406Z,87759.00
2023-01-15T08:05:27.362Z,87754.00
2023-01-15T08:06:27.345Z,87757.00
2023-01-15T08:07:27.255Z,87748.00
2023-01-15T08:08:27.194Z,87761.00
2023-01-15T08:09:27.147Z,87757.00
2023-01-15T08:10:27.098Z,87750.00
2023-01-15T08:11:27.040Z,87748.00
2023-01-15T08:12:26.991Z,87752.00
2023-01-15T08:13:26.922Z,87744.00
2023-01-15T08:14:26.891Z,87744.00
2023-01-15T08:15:26.813Z,87757.00
2023-01-15T08:16:26.806Z,87757.00
2023-01-15T08:17:26.718Z,87754.00
2023-01-15T08:18:26.648Z,87748.00
2023-01-15T08:19:26.588Z,87742.00
2023-01-15T08:20:26.571Z,87752.00
2023-01-15T08:21:26.492Z,87754.00
2023-01-15T08:22:26.431Z,87744.00
2023-01-15T08:23:26.378Z,87744.00
2023-01-15T08:24:26.313Z,87740.00
2023-01-15T08:25:26.282Z,87746.00
2023-01-15T08:26:26.212Z,87738.00
2023-01-15T08:27:26.145Z,87740.00
2023-01-15T08:28:26.091Z,87754.00
2023-01-15T08:29:26.042Z,87752.00
2023-01-15T08:30:26.097Z,87746.00
2023-01-15T08:31:25.933Z,87744.00
2023-01-15T08:32:25.850Z,87742.00
2023-01-15T08:33:25.794Z,87744.00
2023-01-15T08:34:25.731Z,87750.00
2023-01-15T08:35:25.685Z,87736.00
2023-01-15T08:36:25.620Z,87728.00
2023-01-15T08:37:25.564Z,87736.00
2023-01-15T08:38:25.520Z,87740.00
2023-01-15T08:39:25.460Z,87732.00
2023-01-15T08:40:25.474Z,87722.00
2023-01-15T08:41:25.348Z,87720.00
2023-01-15T08:42:25.287Z,87720.00
2023-01-15T08:43:25.217Z,87726.00
2023-01-15T08:44:25.169Z,87712.00
2023-01-15T08:45:25.112Z,87722.00
2023-01-15T08:46:25.056Z,87720.00
2023-01-15T08:47:24.991Z,87732.00
2023-01-15T08:48:24.922Z,87730.00
2023-01-15T08:49:24.881Z,87722.00
2023-01-15T08:50:24.978Z,87722.00
2023-01-15T08:51:24.754Z,87718.00
2023-01-15T08:52:24.691Z,87722.00
2023-01-15T08:53:24.625Z,87718.00
2023-01-15T08:54:24.567Z,87724.00
2023-01-15T08:55:24.499Z,87716.00
2023-01-15T08:56:24.425Z,87716.00
2023-01-15T08:57:24.374Z,87714.00
2023-01-15T08:58:24.312Z,87712.00
2023-01-15T08:59:24.258Z,87714.00
2023-01-15T09:00:24.210Z,87722.00
2023-01-15T09:01:24.215Z,87699.00
2023-01-15T09:02:24.066Z,87710.00
2023-01-15T09:03:24.003Z,87697.00
2023-01-15T09:04:24.004Z,87695.00
2023-01-15T09:05:23.906Z,87699.00
2023-01-15T09:06:23.834Z,87708.00
2023-01-15T09:07:23.785Z,87712.00
2023-01-15T09:08:23.707Z,87708.00
2023-01-15T09:09:23.651Z,87712.00
2023-01-15T09:10:23.612Z,87712.00
2023-01-15T09:11:23.537Z,87710.00
2023-01-15T09:12:23.476Z,87712.00
2023-01-15T09:13:23.435Z,87722.00
2023-01-15T09:14:57.350Z,87697.00
2023-01-15T09:15:24.312Z,87701.00
2023-01-15T09:16:23.281Z,87697.00
2023-01-15T09:17:23.209Z,87690.00
2023-01-15T09:18:23.135Z,87692.00
2023-01-15T09:19:23.073Z,87690.00
2023-01-15T09:20:23.062Z,87684.00
2023-01-15T09:21:22.964Z,87686.00
2023-01-15T09:22:22.904Z,87690.00
2023-01-15T09:23:22.840Z,87690.00
2023-01-15T09:24:22.772Z,87688.00
2023-01-15T09:25:22.713Z,87695.00
2023-01-15T09:26:22.677Z,87692.00
2023-01-15T09:27:22.602Z,87686.00
2023-01-15T09:28:22.541Z,87695.00
2023-01-15T09:29:22.521Z,87690.00
2023-01-15T09:30:22.460Z,87695.00
2023-01-15T09:31:22.349Z,87699.00
2023-01-15T09:32:22.316Z,87699.00
2023-01-15T09:33:22.233Z,87710.00
2023-01-15T09:34:22.168Z,87710.00
2023-01-15T09:35:22.116Z,87708.00
2023-01-15T09:36:22.052Z,87697.00
2023-01-15T09:37:22.057Z,87710.00
2023-01-15T09:38:21.950Z,87699.00
2023-01-15T09:39:21.898Z,87710.00
2023-01-15T09:40:21.842Z,87701.00
2023-01-15T09:41:21.784Z,87692.00
2023-01-15T09:42:21.739Z,87692.00
2023-01-15T09:43:21.675Z,87686.00
2023-01-15T09:44:21.623Z,87682.00
2023-01-15T09:45:21.578Z,87690.00
2023-01-15T09:46:21.515Z,87690.00
2023-01-15T09:47:21.444Z,87714.00
2023-01-15T09:48:21.393Z,87690.00
2023-01-15T09:49:21.355Z,87695.00
2023-01-15T09:50:21.271Z,87692.00
2023-01-15T09:51:21.219Z,87682.00
2023-01-15T09:52:21.152Z,87686.00
2023-01-15T09:53:21.099Z,87690.00
2023-01-15T09:54:21.043Z,87695.00
2023-01-15T09:55:20.976Z,87680.00
2023-01-15T09:56:20.910Z,87692.00
2023-01-15T09:57:20.850Z,87695.00
2023-01-15T09:58:20.803Z,87682.00
2023-01-15T09:59:20.771Z,87674.00
2023-01-15T10:00:20.813Z,87670.00
2023-01-15T10:01:20.654Z,87672.00
2023-01-15T10:02:20.572Z,87684.00
2023-01-15T10:03:20.611Z,87678.00
2023-01-15T10:04:20.489Z,87678.00
2023-01-15T10:05:20.412Z,87682.00
2023-01-15T10:06:20.340Z,87686.00
2023-01-15T10:07:20.278Z,87682.00
2023-01-15T10:08:20.213Z,87680.00
2023-01-15T10:09:20.161Z,87676.00
2023-01-15T10:10:20.092Z,87676.00
2023-01-15T10:11:20.061Z,87678.00
2023-01-15T10:12:19.985Z,87674.00
2023-01-15T10:13:19.949Z,87682.00
2023-01-15T10:14:19.857Z,87680.00
2023-01-15T10:15:19.813Z,87682.00
2023-01-15T10:16:19.750Z,87670.00
2023-01-15T10:17:19.741Z,87682.00
2023-01-15T10:18:19.637Z,87670.00
2023-01-15T10:19:19.574Z,87668.00
2023-01-15T10:20:19.556Z,87650.00
2023-01-15T10:21:19.455Z,87650.00
2023-01-15T10:22:19.408Z,87652.00
2023-01-15T10:23:19.355Z,87652.00
2023-01-15T10:24:19.292Z,87654.00
2023-01-15T10:25:19.242Z,87654.00
2023-01-15T10:26:19.175Z,87646.00
2023-01-15T10:27:19.127Z,87642.00
2023-01-15T10:28:19.076Z,87642.00
2023-01-15T10:29:19.008Z,87646.00
2023-01-15T10:30:19.015Z,87644.00
2023-01-15T10:31:18.993Z,87637.00
2023-01-15T11:53:14.055Z,87552.00
2023-01-15T11:56:22.932Z,87556.00
2023-01-15T11:57:01.920Z,87548.00
2023-01-15T11:58:01.907Z,87552.00
2023-01-15T11:59:01.878Z,87554.00
2023-01-15T12:00:01.849Z,87548.00
2023-01-15T12:01:01.868Z,87562.00
2023-01-15T12:02:01.821Z,87568.00
2023-01-15T12:03:01.772Z,87552.00
2023-01-15T12:04:01.915Z,87558.00
2023-01-15T12:05:01.744Z,87556.00
2023-01-15T12:06:01.720Z,87556.00
2023-01-15T12:07:01.700Z,87556.00
2023-01-15T12:08:01.673Z,87564.00
2023-01-15T12:09:01.646Z,87548.00
2023-01-15T12:10:01.621Z,87554.00
2023-01-15T12:11:08.904Z,87550.00
2023-01-15T12:12:02.602Z,87546.00
2023-01-15T12:13:01.607Z,87552.00
2023-01-15T12:14:01.550Z,87564.00
2023-01-15T12:15:01.523Z,87552.00
2023-01-15T12:16:01.582Z,87544.00
2023-01-15T12:17:01.485Z,87544.00
2023-01-15T12:18:01.463Z,87546.00
2023-01-15T12:19:01.455Z,87546.00
2023-01-15T12:20:01.422Z,87554.00
2023-01-15T12:21:01.400Z,87540.00
2023-01-15T12:22:01.401Z,87544.00
2023-01-15T12:23:01.353Z,87535.00
2023-01-15T12:24:01.363Z,87535.00
2023-01-15T12:25:01.324Z,87535.00
2023-01-15T12:26:01.322Z,87529.00
2023-01-15T12:27:01.297Z,87538.00
2023-01-15T12:28:01.262Z,87531.00
2023-01-15T12:29:01.236Z,87548.00
2023-01-15T12:30:01.208Z,87540.00
2023-01-15T12:31:01.239Z,87538.00
2023-01-15T12:32:01.179Z,87531.00
2023-01-15T12:33:01.158Z,87533.00
2023-01-15T12:34:01.137Z,87533.00
2023-01-15T12:35:01.132Z,87533.00
2023-01-15T12:36:01.101Z,87523.00
2023-01-15T12:37:01.095Z,87525.00
2023-01-15T12:38:01.058Z,87523.00
2023-01-15T12:39:01.053Z,87519.00
2023-01-15T12:40:01.012Z,87513.00
2023-01-15T12:41:01.010Z,87513.00
2023-01-15T12:42:00.973Z,87515.00
2023-01-15T12:43:00.945Z,87513.00
2023-01-15T12:44:00.920Z,87515.00
2023-01-15T12:45:00.950Z,87515.00
2023-01-15T12:46:00.879Z,87513.00
2023-01-15T12:47:00.861Z,87513.00
2023-01-15T12:48:00.850Z,87515.00
2023-01-15T12:49:00.839Z,87511.00
2023-01-15T12:50:00.816Z,87517.00
2023-01-15T12:51:00.787Z,87505.00
2023-01-15T12:52:00.779Z,87511.00
2023-01-15T12:53:00.733Z,87507.00
2023-01-15T12:54:00.726Z,87505.00
2023-01-15T12:55:00.693Z,87499.00
2023-01-15T12:56:00.665Z,87495.00
2023-01-15T12:57:02.938Z,87495.00
2023-01-15T12:58:00.631Z,87491.00
2023-01-15T12:59:00.615Z,87487.00
2023-01-15T13:00:00.599Z,87489.00
2023-01-15T13:01:00.656Z,87495.00
2023-01-15T13:02:00.651Z,87503.00
2023-01-15T13:03:00.527Z,87501.00
2023-01-15T13:04:00.510Z,87497.00
2023-01-15T13:05:00.492Z,87493.00
2023-01-15T13:06:00.475Z,87501.00
2023-01-15T13:07:00.452Z,87503.00